»·PEaware :: N872SP KPSP-KONT

N872SP :: KPSP-KONT

FLIGHT INFORMATION

Flight Status: Arrived
Operator: Privately registered:
United States
More flights under this callsign
Pilot: Anonymous 30110 (30110)
Aircraft: CESSNA 172 SKYHAWK
(C172)
More flights by this aircraft type
Origin: KPSP Palm Springs Intl
United States
Destination: KONT Ontario Intl
United States
More flights between these airports :: More routes between these airports
Route:
File this flight plan on PilotEdge
Remarks:
Altitude:
(Current/Filed)
6,500ft
Speed:
(Current/Filed)
110kts
Departed: 21-Nov-20 08:43 PM
Arrived: 21-Nov-20 09:14 PM
Distance/Time
Traveled:
56nm/0:31
Distance/Time
To Go:
Arrived

Flight Plot

Page will automatically refresh every two minutes.


Map Options




Map Legend


Flown Route
Filed Route
Departure Airport
Arrival Airport
Navaid (VOR, NDB)
Fix

Horizontal Profiles

Position Reports

Time Latitude Longitude Heading Altitude Ground
Speed
21-Nov-20 20:21 33.823489 -116.497776 54 397ft 0kts
21-Nov-20 20:22 33.823489 -116.497776 54 397ft 0kts
21-Nov-20 20:23 33.823489 -116.497776 54 397ft 0kts
21-Nov-20 20:24 33.823489 -116.497776 54 397ft 0kts
21-Nov-20 20:25 33.823489 -116.497776 54 397ft 0kts
21-Nov-20 20:26 33.823489 -116.497776 54 397ft 0kts
21-Nov-20 20:27 33.823489 -116.497776 54 397ft 0kts
21-Nov-20 20:28 33.823489 -116.497776 54 397ft 0kts
21-Nov-20 20:29 33.823489 -116.497776 54 397ft 0kts
21-Nov-20 20:30 33.823489 -116.497776 54 397ft 0kts
21-Nov-20 20:31 33.823489 -116.497776 54 397ft 0kts
21-Nov-20 20:32 33.823489 -116.497776 53 397ft 0kts
21-Nov-20 20:33 33.823653 -116.498332 280 398ft 4kts
21-Nov-20 20:34 33.824529 -116.498993 329 401ft 0kts
21-Nov-20 20:35 33.824679 -116.499547 236 403ft 0kts
21-Nov-20 20:36 33.824679 -116.499547 237 403ft 0kts
21-Nov-20 20:37 33.824679 -116.499547 236 403ft 0kts
21-Nov-20 20:38 33.824679 -116.499547 236 403ft 0kts
21-Nov-20 20:39 33.824679 -116.499547 236 403ft 0kts
21-Nov-20 20:40 33.824650 -116.499594 229 403ft 0kts
21-Nov-20 20:41 33.825117 -116.500763 322 406ft 33kts
21-Nov-20 20:42 33.841568 -116.514097 328 1277ft 74kts
21-Nov-20 20:43 33.855457 -116.533422 285 2207ft 87kts
21-Nov-20 20:44 33.859926 -116.561071 280 3221ft 79kts
21-Nov-20 20:45 33.863188 -116.587030 270 4100ft 80kts
21-Nov-20 20:46 33.862905 -116.613732 272 4947ft 80kts
21-Nov-20 20:47 33.866266 -116.640343 280 5701ft 83kts
21-Nov-20 20:48 33.875410 -116.665312 297 6412ft 87kts
21-Nov-20 20:49 33.889415 -116.699019 297 6415ft 121kts
21-Nov-20 20:50 33.905991 -116.734273 301 6415ft 121kts
21-Nov-20 20:51 33.920456 -116.769918 274 6428ft 120kts
21-Nov-20 20:52 33.923690 -116.810208 275 6433ft 120kts
21-Nov-20 20:53 33.927321 -116.850019 264 6431ft 121kts
21-Nov-20 20:54 33.927367 -116.890697 276 6445ft 120kts
21-Nov-20 20:55 33.933478 -116.931108 276 6397ft 122kts
21-Nov-20 20:56 33.936621 -116.971644 277 6394ft 122kts
21-Nov-20 20:57 33.941112 -117.011862 270 6387ft 122kts
21-Nov-20 20:58 33.943680 -117.052422 272 6444ft 117kts
21-Nov-20 20:59 33.950128 -117.092507 284 6398ft 121kts
21-Nov-20 21:00 33.958775 -117.131825 285 6404ft 120kts
21-Nov-20 21:01 33.968529 -117.170493 290 6427ft 121kts
21-Nov-20 21:02 33.980485 -117.208928 292 6393ft 122kts
21-Nov-20 21:03 33.989022 -117.247966 283 6065ft 121kts
21-Nov-20 21:04 33.996301 -117.287844 283 5496ft 121kts
21-Nov-20 21:05 34.005317 -117.326875 288 4968ft 121kts
21-Nov-20 21:06 34.016112 -117.365205 286 4424ft 122kts
21-Nov-20 21:07 34.017413 -117.405977 274 3886ft 120kts
21-Nov-20 21:08 34.023021 -117.446246 284 3321ft 122kts
21-Nov-20 21:09 34.032909 -117.485212 288 2790ft 123kts
21-Nov-20 21:10 34.048929 -117.521376 295 2218ft 125kts
21-Nov-20 21:11 34.055026 -117.554024 270 1536ft 72kts
21-Nov-20 21:12 34.054927 -117.576917 270 1097ft 64kts
21-Nov-20 21:13 34.054392 -117.589676 175 917ft 10kts
21-Nov-20 21:14 34.054068 -117.589684 189 915ft 0kts
21-Nov-20 21:15 34.053843 -117.593780 271 915ft 14kts
21-Nov-20 21:16 34.053833 -117.597321 270 915ft 11kts
21-Nov-20 21:17 34.053796 -117.602216 253 915ft 12kts
21-Nov-20 21:18 34.052889 -117.604158 156 914ft 5kts

Navigation Log

Ident Type
Flight plan parsing failed, navigation log unavailable